createdAt,value
2022-12-09T00:00:40.684Z,20.83
2022-12-09T00:03:07.658Z,20.50
2022-12-09T00:05:34.682Z,22.25
2022-12-09T00:08:01.603Z,21.85
2022-12-09T00:10:28.551Z,20.50
2022-12-09T00:12:56.236Z,22.33
2022-12-09T00:15:23.595Z,22.42
2022-12-09T00:17:50.455Z,22.98
2022-12-09T00:20:17.506Z,21.27
2022-12-09T00:22:44.476Z,22.70
2022-12-09T00:25:11.243Z,21.65
2022-12-09T00:27:37.945Z,22.00
2022-12-09T00:30:06.127Z,22.23
2022-12-09T00:32:33.392Z,21.08
2022-12-09T00:35:00.321Z,24.13
2022-12-09T00:37:27.096Z,22.33
2022-12-09T00:39:53.779Z,19.77
2022-12-09T00:42:20.724Z,19.45
2022-12-09T00:44:47.435Z,22.45
2022-12-09T00:47:14.631Z,23.50
2022-12-09T00:49:41.579Z,24.27
2022-12-09T00:52:08.422Z,23.88
2022-12-09T00:54:35.630Z,23.40
2022-12-09T00:57:02.470Z,21.50
2022-12-09T00:59:29.221Z,22.40
2022-12-09T01:01:57.166Z,24.27
2022-12-09T01:04:25.478Z,21.23
2022-12-09T01:06:52.873Z,23.65
2022-12-09T01:09:19.655Z,23.17
2022-12-09T01:11:46.514Z,22.05
2022-12-09T01:14:13.327Z,21.85
2022-12-09T01:16:40.322Z,21.35
2022-12-09T01:19:09.103Z,22.85
2022-12-09T01:21:36.171Z,22.98
2022-12-09T01:24:08.659Z,24.27
2022-12-09T01:26:36.323Z,24.40
2022-12-09T01:29:03.266Z,22.88
2022-12-09T01:31:30.311Z,25.10
2022-12-09T01:33:57.121Z,22.90
2022-12-09T01:36:26.999Z,23.17
2022-12-09T01:38:54.266Z,26.38
2022-12-09T01:41:22.164Z,27.17
2022-12-09T01:44:14.225Z,24.58
2022-12-09T01:46:41.328Z,25.08
2022-12-09T01:49:11.556Z,25.95
2022-12-09T01:51:39.669Z,25.10
2022-12-09T01:54:06.893Z,27.15
2022-12-09T01:56:35.943Z,30.13
2022-12-09T01:59:09.830Z,26.58
2022-12-09T02:01:37.578Z,29.30
2022-12-09T02:04:05.936Z,30.58
2022-12-09T02:06:35.347Z,31.67
2022-12-09T02:09:02.161Z,36.60
2022-12-09T02:11:46.198Z,37.88
2022-12-09T02:14:25.800Z,38.78
2022-12-09T02:17:00.017Z,35.25
2022-12-09T02:19:53.733Z,33.47
2022-12-09T02:22:26.182Z,35.63
2022-12-09T02:24:59.367Z,36.80
2022-12-09T02:27:34.124Z,37.33
2022-12-09T02:30:29.198Z,38.70
2022-12-09T02:35:54.991Z,34.33
2022-12-09T02:38:26.881Z,36.28
2022-12-09T02:41:05.237Z,31.17
2022-12-09T02:43:41.154Z,33.50
2022-12-09T02:46:13.747Z,39.83
2022-12-09T02:48:45.357Z,35.78
2022-12-09T02:51:18.166Z,35.75
2022-12-09T02:53:49.350Z,40.63
2022-12-09T02:56:18.443Z,35.40
2022-12-09T02:58:45.348Z,36.85
2022-12-09T03:01:29.475Z,39.08
2022-12-09T03:03:56.737Z,43.72
2022-12-09T03:06:30.539Z,38.60
2022-12-09T03:09:02.787Z,31.15
2022-12-09T03:11:32.193Z,36.95
2022-12-09T03:14:06.875Z,38.13
2022-12-09T03:16:37.697Z,41.10
2022-12-09T03:19:27.850Z,43.30
2022-12-09T03:21:58.500Z,38.22
2022-12-09T03:24:29.580Z,40.08
2022-12-09T03:26:57.804Z,42.42
2022-12-09T03:29:27.482Z,39.20
2022-12-09T03:31:57.087Z,38.35
2022-12-09T03:34:31.029Z,37.50
2022-12-09T03:37:00.015Z,34.10
2022-12-09T03:39:32.244Z,35.80
2022-12-09T03:42:02.388Z,33.88
2022-12-09T03:44:42.075Z,39.25
2022-12-09T03:47:09.842Z,33.05
2022-12-09T03:49:39.001Z,29.98
2022-12-09T03:52:32.510Z,31.35
2022-12-09T03:55:22.420Z,32.83
2022-12-09T03:57:53.314Z,35.00
2022-12-09T04:00:20.369Z,32.42
2022-12-09T04:02:47.254Z,32.13
2022-12-09T04:05:14.545Z,31.17
2022-12-09T04:07:42.471Z,34.05
2022-12-09T04:10:10.136Z,31.92
2022-12-09T04:12:37.510Z,31.13
2022-12-09T04:15:04.690Z,33.13
2022-12-09T04:17:31.513Z,32.40
2022-12-09T04:19:58.349Z,32.83
2022-12-09T04:22:25.110Z,29.75
2022-12-09T04:24:51.890Z,34.38
2022-12-09T04:27:18.969Z,28.75
2022-12-09T04:29:45.788Z,27.25
2022-12-09T04:32:12.880Z,27.20
2022-12-09T04:34:40.135Z,30.35
2022-12-09T04:37:07.440Z,29.08
2022-12-09T04:39:34.417Z,28.27
2022-12-09T04:42:01.298Z,27.83
2022-12-09T04:44:28.012Z,29.92
2022-12-09T04:46:54.950Z,28.42
2022-12-09T04:49:22.194Z,27.20
2022-12-09T04:51:49.113Z,26.65
2022-12-09T04:54:16.055Z,29.05
2022-12-09T04:56:43.776Z,27.75
2022-12-09T04:59:11.081Z,31.20
2022-12-09T05:01:38.022Z,26.80
2022-12-09T05:04:05.546Z,29.45
2022-12-09T05:06:32.926Z,27.02
2022-12-09T05:09:00.212Z,29.52
2022-12-09T05:11:27.532Z,29.15
2022-12-09T05:13:54.681Z,28.00
2022-12-09T05:16:22.502Z,29.27
2022-12-09T05:18:50.002Z,32.83
2022-12-09T05:21:19.585Z,28.40
2022-12-09T05:23:47.290Z,28.70
2022-12-09T05:26:18.530Z,29.48
2022-12-09T05:28:45.802Z,27.15
2022-12-09T05:31:17.092Z,31.13
2022-12-09T05:33:45.028Z,28.10
2022-12-09T05:36:13.905Z,30.05
2022-12-09T05:38:41.804Z,30.95
2022-12-09T05:41:09.145Z,29.65
2022-12-09T05:43:37.095Z,28.52
2022-12-09T05:46:06.522Z,28.15
2022-12-09T05:48:34.017Z,28.05
2022-12-09T05:51:05.356Z,27.63
2022-12-09T05:53:32.801Z,28.33
2022-12-09T05:56:00.049Z,26.92
2022-12-09T05:58:27.105Z,26.35
2022-12-09T06:00:57.253Z,28.92
2022-12-09T06:03:25.267Z,27.90
2022-12-09T06:05:52.651Z,28.10
2022-12-09T06:08:20.415Z,27.55
2022-12-09T06:10:47.457Z,25.95
2022-12-09T06:13:14.820Z,26.95
2022-12-09T06:15:41.832Z,27.55
2022-12-09T06:18:09.035Z,29.00
2022-12-09T06:20:42.537Z,28.30
2022-12-09T06:23:09.705Z,26.10
2022-12-09T06:25:36.909Z,27.63
2022-12-09T06:28:04.221Z,26.77
2022-12-09T06:30:31.837Z,26.05
2022-12-09T06:32:59.125Z,28.70
2022-12-09T06:35:26.120Z,26.23
2022-12-09T06:37:53.718Z,27.33
2022-12-09T06:40:24.392Z,27.20
2022-12-09T06:42:51.933Z,27.73
2022-12-09T06:45:20.216Z,26.70
2022-12-09T06:47:48.423Z,28.27
2022-12-09T06:50:16.225Z,25.75
2022-12-09T06:52:43.506Z,27.65
2022-12-09T06:55:13.109Z,30.70
2022-12-09T06:57:40.259Z,27.33
2022-12-09T07:00:08.444Z,24.83
2022-12-09T07:02:36.786Z,26.45
2022-12-09T07:05:04.397Z,26.17
2022-12-09T07:07:32.393Z,26.17
2022-12-09T07:10:02.100Z,26.30
2022-12-09T07:12:29.115Z,25.70
2022-12-09T07:14:55.974Z,26.08
2022-12-09T07:17:23.249Z,25.30
2022-12-09T07:19:50.588Z,26.77
2022-12-09T07:22:17.928Z,25.20
2022-12-09T07:24:45.204Z,25.30
2022-12-09T07:27:19.411Z,26.90
2022-12-09T07:29:47.303Z,25.45
2022-12-09T07:32:14.818Z,26.20
2022-12-09T07:34:42.530Z,28.63
2022-12-09T07:37:10.037Z,24.13
2022-12-09T07:39:37.484Z,29.02
2022-12-09T07:42:04.548Z,25.08
2022-12-09T07:44:31.735Z,26.50
2022-12-09T07:46:58.742Z,25.15
2022-12-09T07:49:26.501Z,25.55
2022-12-09T07:51:53.617Z,26.85
2022-12-09T07:54:21.313Z,25.80
2022-12-09T07:56:48.746Z,26.00
2022-12-09T07:59:17.034Z,27.67
2022-12-09T08:01:44.554Z,26.25
2022-12-09T08:04:11.807Z,24.08
2022-12-09T08:06:39.524Z,23.30
2022-12-09T08:09:11.285Z,24.17
2022-12-09T08:11:38.519Z,27.77
2022-12-09T08:14:11.352Z,23.70
2022-12-09T08:16:40.452Z,17.85
2022-12-09T08:19:08.130Z,24.95
2022-12-09T08:21:35.323Z,25.38
2022-12-09T08:24:06.085Z,23.58
2022-12-09T08:26:34.244Z,23.92
2022-12-09T08:29:01.805Z,23.73
2022-12-09T08:31:29.937Z,26.10
2022-12-09T08:33:58.822Z,25.30
2022-12-09T08:36:28.288Z,25.38
2022-12-09T08:38:58.807Z,25.08
2022-12-09T08:41:38.560Z,24.80
2022-12-09T08:44:10.434Z,25.38
2022-12-09T08:46:39.263Z,23.83
2022-12-09T08:49:07.359Z,25.60
2022-12-09T08:51:35.028Z,24.83
2022-12-09T08:54:02.612Z,23.55
2022-12-09T08:56:30.103Z,25.90
2022-12-09T08:58:57.221Z,24.30
2022-12-09T09:01:32.252Z,25.58
2022-12-09T09:04:05.434Z,26.27
2022-12-09T09:06:33.286Z,26.25
2022-12-09T09:09:00.273Z,24.38
2022-12-09T09:11:27.956Z,24.75
2022-12-09T09:13:55.371Z,24.40
2022-12-09T09:16:24.785Z,26.30
2022-12-09T09:18:52.459Z,24.73
2022-12-09T09:21:23.352Z,24.48
2022-12-09T09:23:50.975Z,28.52
2022-12-09T09:26:25.997Z,24.50
2022-12-09T09:28:54.390Z,24.10
2022-12-09T09:31:23.428Z,25.73
2022-12-09T09:33:51.252Z,27.92
2022-12-09T09:36:23.649Z,27.75
2022-12-09T09:38:53.080Z,25.98
2022-12-09T09:41:41.922Z,26.60
2022-12-09T09:44:21.958Z,25.42
2022-12-09T09:46:51.152Z,25.73
2022-12-09T09:49:58.998Z,26.88
2022-12-09T09:52:28.402Z,28.02
2022-12-09T09:54:56.330Z,26.48
2022-12-09T09:57:29.153Z,28.83
2022-12-09T10:00:15.105Z,28.10
2022-12-09T10:03:04.829Z,28.85
2022-12-09T10:05:52.923Z,28.55
2022-12-09T10:08:36.271Z,27.27
2022-12-09T10:11:21.027Z,28.08
2022-12-09T10:14:19.308Z,29.58
2022-12-09T10:16:56.600Z,29.50
2022-12-09T10:19:35.283Z,29.60
2022-12-09T10:22:19.684Z,28.60
2022-12-09T10:24:59.016Z,30.65
2022-12-09T10:27:33.560Z,27.55
2022-12-09T10:32:42.244Z,32.40
2022-12-09T10:35:22.853Z,27.77
2022-12-09T10:37:55.103Z,32.55
2022-12-09T10:40:49.915Z,29.30
2022-12-09T10:43:38.807Z,33.83
2022-12-09T10:46:21.053Z,30.70
2022-12-09T10:48:48.958Z,31.00
2022-12-09T10:51:26.962Z,38.47
2022-12-09T10:53:55.933Z,32.53
2022-12-09T10:56:31.565Z,32.67
2022-12-09T10:59:16.625Z,32.50
2022-12-09T11:01:51.719Z,33.28
2022-12-09T11:04:26.811Z,31.40
2022-12-09T11:07:03.063Z,33.47
2022-12-09T11:09:34.962Z,34.90
2022-12-09T11:12:06.685Z,35.05
2022-12-09T11:14:40.561Z,33.88
2022-12-09T11:17:15.912Z,33.58
2022-12-09T11:19:46.967Z,34.25
2022-12-09T11:22:40.327Z,35.45
2022-12-09T11:25:27.228Z,34.60
2022-12-09T11:28:15.800Z,31.48
2022-12-09T11:31:27.043Z,33.80
2022-12-09T11:33:49.079Z,32.97
2022-12-09T11:36:24.954Z,33.45
2022-12-09T11:39:06.660Z,30.73
2022-12-09T11:41:53.141Z,31.42
2022-12-09T11:44:30.901Z,31.38
2022-12-09T11:46:59.384Z,32.47
2022-12-09T11:49:28.622Z,34.95
2022-12-09T11:52:24.212Z,30.80
2022-12-09T11:55:15.342Z,29.52
2022-12-09T11:57:56.861Z,30.85
2022-12-09T12:00:27.645Z,30.60
2022-12-09T12:03:06.390Z,30.35
2022-12-09T12:05:41.947Z,32.58
2022-12-09T12:08:27.243Z,30.13
2022-12-09T12:11:21.909Z,28.50
2022-12-09T12:13:52.769Z,28.60
2022-12-09T12:16:32.449Z,28.70
2022-12-09T12:19:30.450Z,28.90
2022-12-09T12:22:00.118Z,27.40
2022-12-09T12:24:53.675Z,28.20
2022-12-09T12:27:36.014Z,28.67
2022-12-09T12:30:23.337Z,28.48
2022-12-09T12:36:43.076Z,24.85
2022-12-09T12:39:13.985Z,27.85
2022-12-09T12:42:02.158Z,27.55
2022-12-09T12:45:03.506Z,27.20
2022-12-09T12:47:59.748Z,28.90
2022-12-09T12:50:38.702Z,26.35
2022-12-09T12:53:22.159Z,25.20
2022-12-09T12:56:08.820Z,27.95
2022-12-09T12:58:59.202Z,28.85
2022-12-09T13:01:40.117Z,29.58
2022-12-09T13:04:48.069Z,27.38
2022-12-09T13:07:30.446Z,27.20
2022-12-09T13:10:03.974Z,26.10
2022-12-09T13:12:54.471Z,27.27
2022-12-09T13:15:32.273Z,27.25
2022-12-09T13:18:11.639Z,24.33
2022-12-09T13:20:50.581Z,24.55
2022-12-09T13:24:02.416Z,25.40
2022-12-09T13:26:56.898Z,26.90
2022-12-09T13:29:38.695Z,18.67
2022-12-09T13:32:08.196Z,25.30
2022-12-09T13:34:42.026Z,24.70
2022-12-09T13:37:30.307Z,25.13
2022-12-09T13:39:58.650Z,27.10
2022-12-09T13:42:47.077Z,23.50
2022-12-09T13:45:25.301Z,23.92
2022-12-09T13:47:55.982Z,22.13
2022-12-09T13:50:37.707Z,22.42
2022-12-09T13:53:21.470Z,21.10
2022-12-09T13:56:01.643Z,21.38
2022-12-09T13:58:58.044Z,22.85
2022-12-09T14:01:45.797Z,21.20
2022-12-09T14:04:12.760Z,20.80
2022-12-09T14:06:45.595Z,23.45
2022-12-09T14:09:31.186Z,21.58
2022-12-09T14:12:03.348Z,22.30
2022-12-09T14:14:30.018Z,25.50
2022-12-09T14:16:59.490Z,24.92
2022-12-09T14:19:26.390Z,23.05
2022-12-09T14:22:25.175Z,25.77
2022-12-09T14:24:53.559Z,27.23
2022-12-09T14:27:23.293Z,26.65
2022-12-09T14:30:01.925Z,30.25
2022-12-09T14:32:29.090Z,28.58
2022-12-09T14:35:00.160Z,25.20
2022-12-09T14:37:40.014Z,25.02
2022-12-09T14:40:19.020Z,29.08
2022-12-09T14:43:01.670Z,27.02
2022-12-09T14:45:44.262Z,24.38
2022-12-09T14:48:16.373Z,27.65
2022-12-09T14:50:43.153Z,26.27
2022-12-09T14:53:23.644Z,26.00
2022-12-09T14:55:51.203Z,26.90
2022-12-09T14:58:20.988Z,26.65
2022-12-09T15:00:47.800Z,30.30
2022-12-09T15:03:34.265Z,29.63
2022-12-09T15:06:12.100Z,27.90
2022-12-09T15:08:41.379Z,27.02
2022-12-09T15:11:20.658Z,27.33
2022-12-09T15:13:49.498Z,28.40
2022-12-09T15:16:19.717Z,26.52
2022-12-09T15:18:46.951Z,27.50
2022-12-09T15:21:40.551Z,31.90
2022-12-09T15:24:14.502Z,29.02
2022-12-09T15:26:41.631Z,26.55
2022-12-09T15:29:21.796Z,31.95
2022-12-09T15:31:50.810Z,29.25
2022-12-09T15:37:06.664Z,27.05
2022-12-09T15:40:01.607Z,28.50
2022-12-09T15:42:31.300Z,29.15
2022-12-09T15:45:11.588Z,27.75
2022-12-09T15:48:00.182Z,27.10
2022-12-09T15:50:39.382Z,30.50
2022-12-09T15:53:17.782Z,29.38
2022-12-09T15:56:14.738Z,29.83
2022-12-09T15:58:48.922Z,27.42
2022-12-09T16:01:22.736Z,26.77
2022-12-09T16:03:51.582Z,29.33
2022-12-09T16:06:35.889Z,28.42
2022-12-09T16:09:10.735Z,28.65
2022-12-09T16:11:47.936Z,27.75
2022-12-09T16:14:16.543Z,28.98
2022-12-09T16:16:47.422Z,28.42
2022-12-09T16:19:36.280Z,28.83
2022-12-09T16:22:14.994Z,31.65
2022-12-09T16:25:14.229Z,25.30
2022-12-09T16:27:45.189Z,27.70
2022-12-09T16:30:20.862Z,26.80
2022-12-09T16:32:51.183Z,26.48
2022-12-09T16:35:17.960Z,27.75
2022-12-09T16:38:10.539Z,27.90
2022-12-09T16:40:46.353Z,27.70
2022-12-09T16:43:16.328Z,25.92
2022-12-09T16:45:53.324Z,28.48
2022-12-09T16:48:21.242Z,25.05
2022-12-09T16:50:56.511Z,28.52
2022-12-09T16:53:31.757Z,29.08
2022-12-09T16:56:01.245Z,28.42
2022-12-09T16:58:34.278Z,29.00
2022-12-09T17:01:03.384Z,31.55
2022-12-09T17:03:46.834Z,28.35
2022-12-09T17:06:16.020Z,30.33
2022-12-09T17:08:42.970Z,30.98
2022-12-09T17:11:10.694Z,28.58
2022-12-09T17:13:37.721Z,30.77
2022-12-09T17:16:05.676Z,32.10
2022-12-09T17:18:32.977Z,30.63
2022-12-09T17:21:05.523Z,31.77
2022-12-09T17:23:39.104Z,31.98
2022-12-09T17:26:08.931Z,30.10
2022-12-09T17:28:36.370Z,29.20
2022-12-09T17:31:11.401Z,31.52
2022-12-09T17:33:38.498Z,31.02
2022-12-09T17:36:06.075Z,31.73
2022-12-09T17:38:32.867Z,33.85
2022-12-09T17:41:11.246Z,34.30
2022-12-09T17:43:38.029Z,30.77
2022-12-09T17:46:06.032Z,31.48
2022-12-09T17:48:34.556Z,29.25
2022-12-09T17:51:12.682Z,29.00
2022-12-09T17:53:41.033Z,31.05
2022-12-09T17:56:14.062Z,31.05
2022-12-09T17:58:41.047Z,32.47
2022-12-09T18:01:23.517Z,34.42
2022-12-09T18:04:01.388Z,32.95
2022-12-09T18:06:34.500Z,32.97
2022-12-09T18:10:11.057Z,31.13
2022-12-09T18:12:37.993Z,31.80
2022-12-09T18:15:05.002Z,32.15
2022-12-09T18:17:33.977Z,30.35
2022-12-09T18:20:00.831Z,30.33
2022-12-09T18:22:27.744Z,32.97
2022-12-09T18:24:54.503Z,29.52
2022-12-09T18:27:21.341Z,30.08
2022-12-09T18:29:48.112Z,28.52
2022-12-09T18:32:15.146Z,32.38
2022-12-09T18:34:41.843Z,28.48
2022-12-09T18:37:08.587Z,30.77
2022-12-09T18:39:36.511Z,33.53
2022-12-09T18:42:03.538Z,30.10
2022-12-09T18:44:30.256Z,29.77
2022-12-09T18:46:56.969Z,32.42
2022-12-09T18:49:27.048Z,29.77
2022-12-09T18:51:54.862Z,29.35
2022-12-09T18:54:24.590Z,29.30
2022-12-09T18:56:51.556Z,29.05
2022-12-09T18:59:20.781Z,29.92
2022-12-09T19:01:48.674Z,31.42
2022-12-09T19:04:24.578Z,31.45
2022-12-09T19:06:53.938Z,35.20
2022-12-09T19:09:22.989Z,31.48
2022-12-09T19:11:51.292Z,30.95
2022-12-09T19:14:20.573Z,31.65
2022-12-09T19:16:48.323Z,32.17
2022-12-09T19:19:17.713Z,29.00
2022-12-09T19:21:45.590Z,29.23
2022-12-09T19:24:18.314Z,27.60
2022-12-09T19:26:45.301Z,28.75
2022-12-09T19:29:13.854Z,31.58
2022-12-09T19:31:46.632Z,28.42
2022-12-09T19:34:16.493Z,29.42
2022-12-09T19:36:44.242Z,30.45
2022-12-09T19:39:12.267Z,28.10
2022-12-09T19:41:40.399Z,31.52
2022-12-09T19:44:08.577Z,35.95
2022-12-09T19:46:35.578Z,32.92
2022-12-09T19:49:02.843Z,29.75
2022-12-09T19:51:29.716Z,30.20
2022-12-09T19:53:58.368Z,30.05
2022-12-09T19:56:25.649Z,30.83
2022-12-09T19:58:53.254Z,31.88
2022-12-09T20:01:30.742Z,33.33
2022-12-09T20:04:25.255Z,33.42
2022-12-09T20:06:53.196Z,30.15
2022-12-09T20:09:24.330Z,30.17
2022-12-09T20:11:52.733Z,30.85
2022-12-09T20:14:19.879Z,32.13
2022-12-09T20:16:46.624Z,31.23
2022-12-09T20:19:13.733Z,32.97
2022-12-09T20:21:40.655Z,32.78
2022-12-09T20:24:09.623Z,34.75
2022-12-09T20:26:38.074Z,30.58
2022-12-09T20:29:07.577Z,32.15
2022-12-09T20:31:35.955Z,37.85
2022-12-09T20:34:06.170Z,35.58
2022-12-09T20:36:34.856Z,31.98
2022-12-09T20:39:05.582Z,32.63
2022-12-09T20:41:32.319Z,32.55
2022-12-09T20:44:00.162Z,30.77
2022-12-09T20:46:30.098Z,30.77
2022-12-09T20:48:57.979Z,32.33
2022-12-09T20:51:27.676Z,34.85
2022-12-09T20:53:55.353Z,32.53
2022-12-09T20:56:24.068Z,32.40
2022-12-09T20:58:53.588Z,32.92
2022-12-09T21:01:21.722Z,33.42
2022-12-09T21:03:49.258Z,32.78
2022-12-09T21:06:17.614Z,34.42
2022-12-09T21:08:45.360Z,34.55
2022-12-09T21:11:21.351Z,33.88
2022-12-09T21:13:50.885Z,33.55
2022-12-09T21:16:21.300Z,37.30
2022-12-09T21:18:49.672Z,36.97
2022-12-09T21:21:18.171Z,34.88
2022-12-09T21:23:44.984Z,36.30
2022-12-09T21:26:14.300Z,33.70
2022-12-09T21:28:42.209Z,35.28
2022-12-09T21:31:21.044Z,34.40
2022-12-09T21:33:49.665Z,33.53
2022-12-09T21:36:18.764Z,34.10
2022-12-09T21:38:45.547Z,36.03
2022-12-09T21:41:18.109Z,40.70
2022-12-09T21:43:45.559Z,35.70
2022-12-09T21:46:16.163Z,38.28
2022-12-09T21:48:42.928Z,39.53
2022-12-09T21:51:11.112Z,36.17
2022-12-09T21:53:38.530Z,38.45
2022-12-09T21:56:07.896Z,39.90
2022-12-09T21:58:35.717Z,40.65
2022-12-09T22:01:09.949Z,40.38
2022-12-09T22:03:37.274Z,39.63
2022-12-09T22:06:04.965Z,39.30
2022-12-09T22:08:31.653Z,38.30
2022-12-09T22:10:58.697Z,39.83
2022-12-09T22:13:26.487Z,42.38
2022-12-09T22:15:53.637Z,38.67
2022-12-09T22:18:20.594Z,38.08
2022-12-09T22:21:23.029Z,43.75
2022-12-09T22:23:34.916Z,39.50
2022-12-09T22:26:05.496Z,39.13
2022-12-09T22:28:32.419Z,39.55
2022-12-09T22:30:59.200Z,38.58
2022-12-09T22:33:26.003Z,44.28
2022-12-09T22:35:52.692Z,41.60
2022-12-09T22:38:19.411Z,44.75
2022-12-09T22:40:46.085Z,46.63
2022-12-09T22:43:12.770Z,43.50
2022-12-09T22:45:39.571Z,44.17
2022-12-09T22:48:06.277Z,42.55
2022-12-09T22:50:36.281Z,43.90
2022-12-09T22:53:03.047Z,37.92
2022-12-09T22:55:29.807Z,44.78
2022-12-09T22:57:56.845Z,45.42
2022-12-09T23:00:23.625Z,44.90
2022-12-09T23:02:50.435Z,48.05
2022-12-09T23:05:17.483Z,44.42
2022-12-09T23:07:44.262Z,47.42
2022-12-09T23:10:11.049Z,43.17
2022-12-09T23:12:37.826Z,44.65
2022-12-09T23:15:04.897Z,44.40
2022-12-09T23:17:31.576Z,46.78
2022-12-09T23:19:58.286Z,44.65
2022-12-09T23:22:25.018Z,42.22
2022-12-09T23:24:51.746Z,40.65
2022-12-09T23:27:18.446Z,43.15
2022-12-09T23:29:45.758Z,43.35
2022-12-09T23:32:12.534Z,42.45
2022-12-09T23:34:40.050Z,49.33
2022-12-09T23:37:06.811Z,43.45
2022-12-09T23:39:33.502Z,43.50
2022-12-09T23:42:00.159Z,43.40
2022-12-09T23:44:26.881Z,41.67
2022-12-09T23:46:53.712Z,42.58
2022-12-09T23:49:20.428Z,43.08
2022-12-09T23:51:47.888Z,44.63
2022-12-09T23:54:16.476Z,45.88
2022-12-09T23:56:47.901Z,44.30
2022-12-09T23:59:15.146Z,46.65
